Time;durP1;ratioP1;P1;durP2;ratioP2;P2;SDS_P1;SDS_P2;PMS_P1;PMS_P2;Temp;Humidity;BMP_temperature;BMP_pressure;BME280_temperature;BME280_humidity;BME280_pressure;Samples;Min_cycle;Max_cycle;Signal;HPM_P1;HPM_P2
2022/10/14 00:01:09;;;;;;;9.17;5.70;;;;;;;11.55;95.91;95775.53;6152112;23;20151;-83
2022/10/14 00:03:36;;;;;;;9.13;5.80;;;;;;;11.56;95.69;95768.53;6127536;23;20171;-83
2022/10/14 00:06:06;;;;;;;6.00;5.40;;;;;;;11.56;95.12;95766.75;6176344;23;20163;-83
2022/10/14 00:08:32;;;;;;;9.07;5.27;;;;;;;11.58;95.17;95771.81;6152493;23;20183;-82
2022/10/14 00:11:06;;;;;;;7.63;5.17;;;;;;;11.62;94.76;95776.56;6177348;23;20709;-82
2022/10/14 00:13:31;;;;;;;9.40;5.40;;;;;;;11.62;94.79;95766.16;6177437;23;20144;-83
2022/10/14 00:15:57;;;;;;;6.53;4.83;;;;;;;11.65;94.49;95759.84;6151218;23;20178;-82
2022/10/14 00:18:22;;;;;;;7.20;5.40;;;;;;;11.66;94.35;95765.84;6151850;23;20511;-82
2022/10/14 00:20:55;;;;;;;8.70;5.83;;;;;;;11.66;94.29;95769.31;6152410;23;20166;-83
2022/10/14 00:23:20;;;;;;;8.47;5.30;;;;;;;11.66;94.28;95774.50;6152326;23;20163;-82
2022/10/14 00:25:46;;;;;;;6.50;4.90;;;;;;;11.71;94.27;95779.25;6176085;23;20215;-81
2022/10/14 00:28:11;;;;;;;9.13;5.43;;;;;;;11.59;93.57;95776.88;6151178;23;20175;-82
2022/10/14 00:30:36;;;;;;;11.20;5.17;;;;;;;11.56;94.13;95782.34;6150703;23;20179;-82
2022/10/14 00:33:01;;;;;;;9.10;5.60;;;;;;;11.57;93.91;95788.38;6177085;23;20223;-82
2022/10/14 00:35:27;;;;;;;10.57;5.50;;;;;;;11.60;94.23;95775.09;6151238;23;20178;-83
2022/10/14 00:37:52;;;;;;;7.93;5.40;;;;;;;11.73;93.74;95775.53;6152542;23;20528;-83
2022/10/14 00:40:17;;;;;;;7.67;5.07;;;;;;;11.76;93.69;95782.22;6151336;23;20168;-82
2022/10/14 00:42:43;;;;;;;7.17;5.10;;;;;;;11.77;93.63;95786.47;6151160;23;20505;-82
2022/10/14 00:45:18;;;;;;;6.90;5.37;;;;;;;11.73;94.38;95782.50;6151032;23;20229;-83
2022/10/14 00:47:43;;;;;;;5.50;4.73;;;;;;;11.73;94.48;95787.72;6151767;23;20593;-83
2022/10/14 00:50:10;;;;;;;8.10;5.17;;;;;;;11.72;94.81;95783.47;6151526;23;20189;-83
2022/10/14 00:52:36;;;;;;;9.97;5.27;;;;;;;11.67;95.32;95781.34;6176881;23;20155;-83
2022/10/14 00:55:12;;;;;;;10.50;5.60;;;;;;;11.66;95.45;95776.25;6151183;23;20159;-83
2022/10/14 00:57:38;;;;;;;7.13;5.70;;;;;;;11.63;95.44;95791.22;6128107;23;20163;-83
2022/10/14 01:00:07;;;;;;;7.47;5.07;;;;;;;11.60;96.34;95786.31;6154945;23;20644;-82
2022/10/14 01:02:32;;;;;;;8.57;5.13;;;;;;;11.57;96.52;95785.78;6154833;23;20163;-82
2022/10/14 01:04:59;;;;;;;7.97;5.53;;;;;;;11.50;97.26;95784.75;6152178;23;20163;-83
2022/10/14 01:07:39;;;;;;;11.23;5.10;;;;;;;11.50;97.82;95785.56;6152252;23;20175;-82
2022/10/14 01:10:08;;;;;;;8.23;4.87;;;;;;;11.43;98.39;95783.69;6127407;23;20186;-83
2022/10/14 01:13:03;;;;;;;8.73;5.00;;;;;;;11.53;98.09;95774.84;6153433;23;20159;-82
2022/10/14 01:15:42;;;;;;;10.07;5.17;;;;;;;11.53;98.31;95776.66;6178385;23;20162;-82
2022/10/14 01:18:16;;;;;;;7.50;5.50;;;;;;;11.58;98.00;95777.03;6154358;23;20257;-83
2022/10/14 01:21:03;;;;;;;13.30;4.97;;;;;;;11.56;98.56;95773.75;6154238;23;20230;-84
2022/10/14 01:24:04;;;;;;;7.53;4.83;;;;;;;11.44;99.73;95767.13;6154368;23;20174;-83
2022/10/14 01:26:58;;;;;;;6.97;5.43;;;;;;;11.41;100.00;95776.03;6153656;23;20159;-82
2022/10/14 01:29:46;;;;;;;12.87;5.43;;;;;;;11.36;100.00;95765.25;6179102;23;20206;-83
2022/10/14 01:32:20;;;;;;;8.00;5.20;;;;;;;11.40;100.00;95768.41;6153282;23;20171;-83
2022/10/14 01:34:54;;;;;;;8.60;5.10;;;;;;;11.33;100.00;95770.75;6153995;23;20492;-82
2022/10/14 01:37:23;;;;;;;7.70;5.60;;;;;;;11.28;100.00;95765.97;6155863;23;20140;-83
2022/10/14 01:39:51;;;;;;;8.47;5.17;;;;;;;11.37;100.00;95772.09;6154840;23;20168;-82
2022/10/14 01:42:20;;;;;;;9.20;6.07;;;;;;;11.38;100.00;95765.09;6130244;23;20212;-82
2022/10/14 01:44:50;;;;;;;8.97;5.47;;;;;;;11.36;100.00;95757.47;6179019;23;20163;-82
2022/10/14 01:47:18;;;;;;;8.97;6.37;;;;;;;11.36;100.00;95757.47;6153547;23;20641;-82
2022/10/14 01:49:52;;;;;;;8.90;6.43;;;;;;;11.42;100.00;95762.06;6153315;23;20221;-83
2022/10/14 01:52:26;;;;;;;8.70;6.10;;;;;;;11.41;100.00;95754.44;6153681;23;20155;-83
2022/10/14 01:54:54;;;;;;;10.07;6.47;;;;;;;11.44;100.00;95756.72;6152743;23;20239;-83
2022/10/14 01:57:23;;;;;;;8.63;5.80;;;;;;;11.40;100.00;95748.41;6179562;23;20155;-83
2022/10/14 01:59:49;;;;;;;8.63;5.40;;;;;;;11.50;100.00;95745.75;6153404;23;20174;-83
2022/10/14 02:02:14;;;;;;;9.40;6.30;;;;;;;11.50;100.00;95749.16;6153884;23;20229;-83
2022/10/14 02:04:39;;;;;;;7.37;5.87;;;;;;;11.51;100.00;95742.16;6152760;23;20179;-82
2022/10/14 02:07:10;;;;;;;11.27;5.80;;;;;;;11.58;100.00;95741.44;6178303;23;20834;-83
2022/10/14 02:10:01;;;;;;;7.97;5.30;;;;;;;11.58;100.00;95738.00;6178520;23;20262;-83
2022/10/14 02:13:05;;;;;;;8.97;5.40;;;;;;;11.53;100.00;95738.44;6153563;23;20238;-83
2022/10/14 02:15:32;;;;;;;8.67;5.40;;;;;;;11.58;100.00;95741.44;6152267;23;20155;-82
2022/10/14 02:18:28;;;;;;;8.50;6.23;;;;;;;11.60;100.00;95728.28;6152546;23;20175;-83
2022/10/14 02:21:02;;;;;;;7.23;5.33;;;;;;;11.56;100.00;95727.72;6153936;23;20813;-82
2022/10/14 02:23:41;;;;;;;13.03;5.87;;;;;;;11.48;100.00;95726.84;6152241;23;20144;-83
2022/10/14 02:26:09;;;;;;;6.93;5.80;;;;;;;11.39;100.00;95725.94;6176903;23;20177;-83
2022/10/14 02:28:35;;;;;;;11.73;5.57;;;;;;;11.37;100.00;95722.69;6152604;23;20183;-83
2022/10/14 02:31:07;;;;;;;10.10;6.20;;;;;;;11.44;100.00;95717.72;6177821;23;20660;-83
2022/10/14 02:33:36;;;;;;;6.80;5.50;;;;;;;11.40;100.00;95714.63;6177829;23;20190;-83
2022/10/14 02:36:02;;;;;;;7.87;5.47;;;;;;;11.36;100.00;95710.66;6177140;23;20178;-82
2022/10/14 02:38:29;;;;;;;7.27;5.90;;;;;;;11.38;100.00;95703.50;6152121;23;20633;-83
2022/10/14 02:40:54;;;;;;;8.37;5.73;;;;;;;11.46;100.00;95695.78;6151851;23;20158;-82
2022/10/14 02:43:19;;;;;;;9.20;5.43;;;;;;;11.46;100.00;95694.97;6152299;23;20167;-83
2022/10/14 02:45:45;;;;;;;9.37;5.57;;;;;;;11.44;100.00;95692.53;6151550;23;20163;-83
2022/10/14 02:48:11;;;;;;;9.77;5.87;;;;;;;11.43;100.00;95696.09;6151847;23;20182;-83
2022/10/14 02:50:36;;;;;;;8.37;6.10;;;;;;;11.39;100.00;95692.16;6127892;23;20259;-83
2022/10/14 02:53:01;;;;;;;10.27;6.47;;;;;;;11.33;100.00;95685.78;6152122;23;20268;-82
2022/10/14 02:55:27;;;;;;;13.67;7.10;;;;;;;11.36;100.00;95692.44;6176445;23;20210;-82
2022/10/14 02:57:52;;;;;;;9.40;6.47;;;;;;;11.31;100.00;95697.31;6176954;23;20250;-83
2022/10/14 03:00:18;;;;;;;8.37;6.50;;;;;;;11.24;100.00;95691.88;6151917;23;20151;-83
2022/10/14 03:02:43;;;;;;;10.17;6.60;;;;;;;11.22;100.00;95690.34;6151802;23;20159;-83
2022/10/14 03:05:09;;;;;;;7.07;6.23;;;;;;;11.32;100.00;95689.34;6176408;23;20155;-82
2022/10/14 03:07:35;;;;;;;10.77;6.03;;;;;;;11.19;100.00;95678.47;6127825;23;20173;-83
2022/10/14 03:10:01;;;;;;;8.73;6.73;;;;;;;11.10;100.00;95678.56;6152038;23;20187;-83
2022/10/14 03:12:26;;;;;;;11.50;6.93;;;;;;;11.10;100.00;95678.56;6152152;23;20163;-83
2022/10/14 03:14:52;;;;;;;8.90;6.90;;;;;;;11.06;100.00;95678.88;6150908;23;20170;-82
2022/10/14 03:17:17;;;;;;;11.13;7.07;;;;;;;11.18;100.00;95676.03;6176501;23;20159;-83
2022/10/14 03:19:42;;;;;;;11.53;7.53;;;;;;;11.06;100.00;95665.06;6152116;23;20183;-83
2022/10/14 03:22:08;;;;;;;9.67;6.90;;;;;;;11.07;100.00;95669.28;6176780;23;20155;-83
2022/10/14 03:24:33;;;;;;;9.03;7.13;;;;;;;11.05;100.00;95666.84;6151616;23;20163;-83
2022/10/14 03:26:58;;;;;;;12.17;7.30;;;;;;;11.09;100.00;95663.94;6151057;23;20193;-83
2022/10/14 03:29:24;;;;;;;10.73;7.63;;;;;;;11.07;100.00;95651.91;6151835;23;20183;-82
2022/10/14 03:31:49;;;;;;;12.50;8.33;;;;;;;11.02;100.00;95650.69;6151634;23;20183;-82
2022/10/14 03:34:14;;;;;;;12.37;7.67;;;;;;;11.01;100.00;95649.88;6151501;23;20160;-83
2022/10/14 03:36:39;;;;;;;15.77;7.87;;;;;;;11.05;100.00;95651.25;6151133;23;20597;-83
2022/10/14 03:39:05;;;;;;;8.47;7.53;;;;;;;11.05;100.00;95645.22;6152989;23;20277;-83
2022/10/14 03:41:30;;;;;;;12.93;8.10;;;;;;;11.05;100.00;95640.84;6176843;23;20202;-82
2022/10/14 03:43:55;;;;;;;12.57;8.70;;;;;;;11.08;100.00;95650.13;6151532;23;20171;-82
2022/10/14 03:46:21;;;;;;;14.77;7.90;;;;;;;11.05;100.00;95640.03;6150692;23;20190;-83
2022/10/14 03:48:46;;;;;;;12.23;8.00;;;;;;;11.11;100.00;95639.41;6151210;23;20178;-83
2022/10/14 03:51:11;;;;;;;13.87;8.70;;;;;;;11.06;100.00;95632.09;6151412;23;20183;-83
2022/10/14 03:53:37;;;;;;;12.17;8.67;;;;;;;11.06;100.00;95629.50;6151858;23;20186;-83
2022/10/14 03:56:02;;;;;;;11.87;7.90;;;;;;;11.16;100.00;95633.78;6175976;23;20155;-83
2022/10/14 03:58:27;;;;;;;14.07;8.50;;;;;;;11.10;100.00;95629.19;6151567;23;20179;-82
2022/10/14 04:00:53;;;;;;;13.73;8.33;;;;;;;11.21;100.00;95628.94;6151099;23;20161;-83
2022/10/14 04:03:18;;;;;;;11.97;8.30;;;;;;;11.19;100.00;95630.88;6176704;23;20155;-82
2022/10/14 04:05:43;;;;;;;12.00;8.90;;;;;;;11.18;100.00;95634.44;6150995;23;20174;-83
2022/10/14 04:08:09;;;;;;;12.27;8.23;;;;;;;11.17;100.00;95632.81;6177082;23;20930;-83
2022/10/14 04:10:34;;;;;;;9.67;7.53;;;;;;;11.26;100.00;95624.94;6176908;23;20171;-82
2022/10/14 04:12:59;;;;;;;9.33;7.97;;;;;;;11.27;100.00;95623.97;6151625;23;20170;-82
2022/10/14 04:15:25;;;;;;;10.43;7.90;;;;;;;11.29;100.00;95618.63;6175832;23;20159;-82
2022/10/14 04:17:50;;;;;;;10.57;8.00;;;;;;;11.25;100.00;95622.50;6176343;23;20160;-83
2022/10/14 04:20:16;;;;;;;10.63;7.57;;;;;;;11.30;100.00;95621.06;6151912;23;20159;-83
2022/10/14 04:22:41;;;;;;;9.03;7.47;;;;;;;11.37;100.00;95620.47;6175854;23;20199;-84
2022/10/14 04:25:07;;;;;;;12.23;7.97;;;;;;;11.36;100.00;95614.47;6205524;22;20154;-84
2022/10/14 04:27:32;;;;;;;13.10;8.30;;;;;;;11.35;100.00;95610.22;6182024;23;20150;-83
2022/10/14 04:29:58;;;;;;;11.10;8.27;;;;;;;11.38;100.00;95609.09;6180595;23;20345;-84
2022/10/14 04:32:23;;;;;;;13.93;8.83;;;;;;;11.39;100.00;95601.16;6195119;22;20175;-83
2022/10/14 04:34:48;;;;;;;10.87;7.67;;;;;;;11.41;100.00;95599.22;6179974;23;20294;-83
2022/10/14 04:37:14;;;;;;;14.07;8.30;;;;;;;11.42;100.00;95600.03;6155927;23;20246;-84
2022/10/14 04:39:39;;;;;;;13.40;8.50;;;;;;;11.39;100.00;95603.75;6157351;23;20187;-84
2022/10/14 04:42:04;;;;;;;10.70;7.77;;;;;;;11.42;100.00;95593.06;6156816;23;20500;-84
2022/10/14 04:44:30;;;;;;;9.93;8.33;;;;;;;11.41;100.00;95598.41;6156186;23;20171;-84
2022/10/14 04:46:55;;;;;;;11.40;8.33;;;;;;;11.42;100.00;95605.25;6156511;23;20163;-83
2022/10/14 04:49:20;;;;;;;12.27;8.00;;;;;;;11.42;100.00;95600.03;6183217;23;20206;-84
2022/10/14 04:51:46;;;;;;;12.60;7.73;;;;;;;11.41;100.00;95599.22;6158062;23;20183;-84
2022/10/14 04:54:11;;;;;;;9.90;7.60;;;;;;;11.46;100.00;95583.16;6157273;23;20209;-83
2022/10/14 04:56:36;;;;;;;10.10;7.57;;;;;;;11.44;100.00;95587.69;6153483;23;20200;-82
2022/10/14 04:59:02;;;;;;;9.23;8.10;;;;;;;11.43;100.00;95586.88;6150450;23;20548;-81
2022/10/14 05:01:27;;;;;;;13.57;8.80;;;;;;;11.40;100.00;95582.00;6153279;23;20152;-83
2022/10/14 05:03:54;;;;;;;9.67;7.67;;;;;;;11.47;100.00;95577.81;6177992;23;20189;-82
2022/10/14 05:06:19;;;;;;;10.33;7.87;;;;;;;11.39;100.00;95567.34;6152202;23;20512;-83
2022/10/14 05:08:44;;;;;;;11.47;8.00;;;;;;;11.40;100.00;95569.00;6179811;23;20171;-83
2022/10/14 05:11:09;;;;;;;14.97;7.70;;;;;;;11.39;100.00;95567.34;6153895;23;20228;-81
2022/10/14 05:13:35;;;;;;;10.67;7.57;;;;;;;11.45;100.00;95563.34;6155390;23;20170;-82
2022/10/14 05:16:01;;;;;;;13.33;7.87;;;;;;;11.45;100.00;95561.53;6131611;23;20167;-82
2022/10/14 05:18:26;;;;;;;13.37;8.63;;;;;;;11.40;100.00;95563.81;6157337;23;20183;-82
2022/10/14 05:20:52;;;;;;;9.20;7.53;;;;;;;11.32;100.00;95568.94;6181505;23;20156;-82
2022/10/14 05:23:17;;;;;;;10.40;8.30;;;;;;;11.34;100.00;95567.00;6156554;23;20155;-83
2022/10/14 05:25:42;;;;;;;9.40;7.60;;;;;;;11.37;100.00;95551.09;6180502;23;20151;-82
2022/10/14 05:28:08;;;;;;;9.77;7.30;;;;;;;11.39;100.00;95553.53;6181153;23;20652;-82
2022/10/14 05:30:33;;;;;;;11.63;8.00;;;;;;;11.35;100.00;95551.25;6155337;23;20187;-82
2022/10/14 05:32:58;;;;;;;9.60;7.47;;;;;;;11.43;100.00;95544.47;6156075;23;20167;-82
2022/10/14 05:35:24;;;;;;;11.07;7.77;;;;;;;11.43;100.00;95550.47;6153858;23;20166;-85
2022/10/14 05:37:54;;;;;;;9.00;7.47;;;;;;;11.47;100.00;95546.59;6155301;23;20544;-83
2022/10/14 05:40:20;;;;;;;10.80;7.17;;;;;;;11.47;100.00;95541.41;6155767;23;20148;-82
2022/10/14 05:42:45;;;;;;;10.13;9.13;;;;;;;11.48;100.00;95552.63;6180434;23;20455;-82
2022/10/14 05:45:10;;;;;;;10.70;8.70;;;;;;;11.51;100.00;95547.94;6154427;23;20174;-81
2022/10/14 05:47:36;;;;;;;10.60;8.33;;;;;;;11.51;100.00;95541.94;6179926;23;20155;-81
2022/10/14 05:50:02;;;;;;;10.90;8.57;;;;;;;11.48;100.00;95543.03;6179152;23;20179;-81
2022/10/14 05:52:28;;;;;;;10.70;7.57;;;;;;;11.55;100.00;95544.06;6176331;23;20164;-81
2022/10/14 05:54:54;;;;;;;10.00;7.80;;;;;;;11.43;100.00;95545.28;6150265;23;20156;-81
2022/10/14 05:57:19;;;;;;;14.97;8.97;;;;;;;11.43;100.00;95545.28;6150613;23;20222;-80
2022/10/14 05:59:44;;;;;;;10.63;8.30;;;;;;;11.50;100.00;95546.31;6176699;23;20190;-80
2022/10/14 06:02:10;;;;;;;10.33;8.40;;;;;;;11.57;100.00;95544.72;6153021;23;20163;-81
2022/10/14 06:04:41;;;;;;;10.80;7.40;;;;;;;11.61;100.00;95548.66;6152725;23;20986;-81
2022/10/14 06:07:09;;;;;;;10.97;8.23;;;;;;;11.63;100.00;95551.91;6154372;23;20167;-82
2022/10/14 06:09:34;;;;;;;12.27;7.57;;;;;;;11.74;100.00;95557.81;6154684;23;20249;-80
2022/10/14 06:11:59;;;;;;;10.57;7.67;;;;;;;11.73;100.00;95550.97;6179376;23;20678;-81
2022/10/14 06:14:27;;;;;;;10.10;7.70;;;;;;;11.71;100.00;95553.75;6180346;23;20240;-82
2022/10/14 06:16:52;;;;;;;14.50;8.73;;;;;;;11.76;100.00;95546.31;6152734;23;20213;-82
2022/10/14 06:19:17;;;;;;;11.50;7.77;;;;;;;11.77;100.00;95547.94;6179747;23;20207;-81
2022/10/14 06:21:43;;;;;;;8.97;7.53;;;;;;;11.80;100.00;95550.25;6154693;23;20159;-81
2022/10/14 06:24:09;;;;;;;9.90;8.23;;;;;;;11.84;100.00;95545.56;6154507;23;20163;-82
2022/10/14 06:26:34;;;;;;;10.23;7.83;;;;;;;11.94;99.90;95541.06;6153923;23;20189;-82
2022/10/14 06:29:00;;;;;;;11.83;7.50;;;;;;;11.96;99.25;95531.28;6155078;23;20230;-82
2022/10/14 06:31:25;;;;;;;9.63;7.70;;;;;;;11.94;99.84;95535.03;6178966;23;20179;-81
2022/10/14 06:33:50;;;;;;;11.80;7.73;;;;;;;11.84;99.99;95540.34;6154119;23;20478;-82
2022/10/14 06:36:16;;;;;;;12.13;8.20;;;;;;;11.93;99.97;95551.59;6177944;23;20488;-81
2022/10/14 06:38:41;;;;;;;10.30;7.40;;;;;;;11.86;99.60;95546.22;6152577;23;20201;-80
2022/10/14 06:41:06;;;;;;;11.67;7.97;;;;;;;11.80;100.00;95555.44;6152718;23;20474;-81
2022/10/14 06:43:34;;;;;;;15.07;8.10;;;;;;;11.62;100.00;95550.28;6153075;23;20156;-80
2022/10/14 06:45:59;;;;;;;8.87;7.40;;;;;;;11.77;100.00;95541.91;6152462;23;20214;-81
2022/10/14 06:48:24;;;;;;;10.33;7.10;;;;;;;11.73;100.00;95548.38;6153502;23;20179;-82
2022/10/14 06:50:49;;;;;;;11.07;8.13;;;;;;;11.64;100.00;95553.53;6178849;23;20179;-81
2022/10/14 06:53:15;;;;;;;14.60;7.73;;;;;;;11.57;100.00;95549.09;6174360;23;20626;-81
2022/10/14 06:55:40;;;;;;;9.07;7.47;;;;;;;11.78;100.00;95551.34;6147643;23;20170;-81
2022/10/14 06:58:05;;;;;;;12.63;7.47;;;;;;;11.85;100.00;95550.59;6174776;23;20179;-80
2022/10/14 07:00:31;;;;;;;17.07;7.43;;;;;;;11.86;100.00;95551.41;6151240;23;20550;-80
2022/10/14 07:02:59;;;;;;;13.83;8.50;;;;;;;11.99;100.00;95543.97;6151757;23;20245;-81
2022/10/14 07:05:25;;;;;;;10.60;7.90;;;;;;;12.05;99.55;95539.94;6150687;23;20497;-81
2022/10/14 07:07:50;;;;;;;11.63;7.90;;;;;;;12.11;99.34;95536.72;6151936;23;20171;-80
2022/10/14 07:10:16;;;;;;;10.33;6.90;;;;;;;12.09;99.54;95547.28;6176901;23;20250;-80
2022/10/14 07:12:41;;;;;;;12.53;6.97;;;;;;;12.27;98.55;95548.97;6152071;23;20532;-81
2022/10/14 07:15:07;;;;;;;8.90;7.03;;;;;;;12.34;97.59;95549.97;6150684;23;20191;-81
2022/10/14 07:17:32;;;;;;;9.03;7.07;;;;;;;12.34;97.05;95550.78;6151712;23;20163;-82
2022/10/14 07:19:57;;;;;;;10.87;6.40;;;;;;;12.56;96.48;95549.41;6151342;23;20183;-80
2022/10/14 07:22:23;;;;;;;11.13;7.10;;;;;;;12.47;96.50;95547.75;6151459;23;20493;-80
2022/10/14 07:24:48;;;;;;;12.30;6.83;;;;;;;12.54;96.39;95548.72;6175253;23;20162;-81
2022/10/14 07:27:15;;;;;;;12.23;7.17;;;;;;;12.72;95.60;95546.81;6177249;23;20152;-81
2022/10/14 07:29:41;;;;;;;7.93;7.13;;;;;;;12.77;94.77;95541.94;6126971;23;20716;-82
2022/10/14 07:32:06;;;;;;;12.47;6.80;;;;;;;12.92;93.71;95549.13;6152348;23;20684;-80
2022/10/14 07:34:33;;;;;;;9.87;6.70;;;;;;;13.14;93.47;95553.69;6152965;23;20159;-81
2022/10/14 07:36:58;;;;;;;10.00;6.53;;;;;;;13.06;93.44;95543.25;6151795;23;20159;-81
2022/10/14 07:39:24;;;;;;;13.40;7.10;;;;;;;13.17;92.55;95542.94;6151621;23;20274;-81
2022/10/14 07:41:49;;;;;;;7.60;6.00;;;;;;;13.20;92.14;95544.44;6175866;23;20250;-80
2022/10/14 07:44:16;;;;;;;7.40;6.27;;;;;;;13.16;91.26;95546.50;6176370;23;20625;-80
2022/10/14 07:46:43;;;;;;;9.43;6.13;;;;;;;13.19;91.99;95553.19;6150175;23;20166;-82
2022/10/14 07:49:26;;;;;;;8.00;5.40;;;;;;;13.16;91.60;95551.72;6126717;23;20516;-82
2022/10/14 07:51:52;;;;;;;10.77;5.80;;;;;;;13.19;92.41;95551.44;6176513;23;20209;-83
2022/10/14 07:54:20;;;;;;;6.87;6.03;;;;;;;13.07;93.13;95544.88;6151389;23;20614;-82
2022/10/14 07:56:47;;;;;;;10.43;6.20;;;;;;;13.06;92.30;95548.47;6150421;23;20680;-82
2022/10/14 07:59:13;;;;;;;7.93;6.10;;;;;;;13.12;92.46;95560.03;6151969;23;20183;-81
2022/10/14 08:01:38;;;;;;;7.27;5.90;;;;;;;13.17;92.71;95552.56;6150699;23;20621;-82
2022/10/14 08:04:03;;;;;;;9.77;7.93;;;;;;;13.07;93.24;95557.91;6151516;23;20497;-82
2022/10/14 08:06:29;;;;;;;10.60;7.83;;;;;;;13.13;93.10;95551.25;6150202;23;20175;-84
2022/10/14 08:08:54;;;;;;;8.30;7.50;;;;;;;13.10;93.42;95547.16;6176135;23;20182;-83
2022/10/14 08:11:22;;;;;;;7.03;6.33;;;;;;;13.18;93.13;95541.97;6150839;23;20213;-82
2022/10/14 08:13:48;;;;;;;10.03;6.30;;;;;;;13.06;93.54;95545.84;6151631;23;20163;-80
2022/10/14 08:16:15;;;;;;;8.37;6.27;;;;;;;13.19;93.33;95543.63;6150473;23;20166;-82
2022/10/14 08:18:41;;;;;;;8.17;5.90;;;;;;;13.30;92.53;95551.09;6150746;23;20641;-82
2022/10/14 08:21:06;;;;;;;7.67;6.13;;;;;;;13.41;91.89;95551.75;6151859;23;20202;-82
2022/10/14 08:23:31;;;;;;;9.63;6.47;;;;;;;13.43;91.62;95547.16;6177590;23;20159;-83
2022/10/14 08:25:57;;;;;;;7.40;5.40;;;;;;;13.43;90.27;95545.41;6175576;23;20246;-81
2022/10/14 08:28:22;;;;;;;8.27;6.03;;;;;;;13.68;89.99;95545.34;6153731;23;20186;-81
2022/10/14 08:30:48;;;;;;;10.60;5.57;;;;;;;13.82;89.10;95548.09;6152598;23;20256;-86
2022/10/14 08:33:13;;;;;;;7.80;5.50;;;;;;;13.68;90.16;95543.53;6150781;23;20221;-83
2022/10/14 08:35:38;;;;;;;7.80;5.20;;;;;;;13.69;89.72;95547.78;6150323;23;20158;-83
2022/10/14 08:38:04;;;;;;;6.53;4.93;;;;;;;13.69;90.23;95545.16;6175206;23;20182;-85
2022/10/14 08:40:51;;;;;;;7.73;5.40;;;;;;;13.79;89.06;95537.16;6175649;23;20152;-84
2022/10/14 08:43:32;;;;;;;7.70;5.27;;;;;;;13.66;89.82;95544.69;6150314;23;20165;-82
2022/10/14 08:46:10;;;;;;;6.87;4.93;;;;;;;13.77;89.64;95545.16;6175316;23;20179;-82
2022/10/14 08:48:36;;;;;;;6.70;4.93;;;;;;;13.67;89.55;95541.91;6175813;23;20175;-82
2022/10/14 08:51:05;;;;;;;7.80;5.20;;;;;;;13.80;88.85;95538.78;6150356;23;20262;-82
2022/10/14 08:53:42;;;;;;;6.57;5.20;;;;;;;13.75;89.01;95544.50;6175867;23;20613;-82
2022/10/14 08:56:09;;;;;;;7.97;4.93;;;;;;;13.85;88.37;95547.72;6125306;23;20151;-82
2022/10/14 08:58:38;;;;;;;6.53;4.97;;;;;;;13.87;88.13;95547.59;6149839;23;20187;-82
2022/10/14 09:01:28;;;;;;;6.60;5.33;;;;;;;13.88;87.99;95544.81;6152494;23;20585;-85
2022/10/14 09:04:20;;;;;;;9.10;5.07;;;;;;;14.03;88.09;95538.88;6127411;23;20175;-82
2022/10/14 09:06:47;;;;;;;5.70;4.77;;;;;;;13.98;87.47;95539.41;6122207;23;20186;-82
2022/10/14 09:09:35;;;;;;;10.23;5.43;;;;;;;14.22;86.60;95530.63;6128066;23;20205;-84
2022/10/14 09:12:10;;;;;;;9.13;4.87;;;;;;;14.33;85.91;95530.28;6177713;23;20185;-82
2022/10/14 09:14:40;;;;;;;8.90;5.07;;;;;;;14.53;85.87;95535.09;6126046;23;20242;-81
2022/10/14 09:17:12;;;;;;;7.87;5.27;;;;;;;14.64;84.40;95524.22;6127495;23;20155;-85
2022/10/14 09:19:45;;;;;;;6.40;4.90;;;;;;;14.87;84.01;95532.91;6152827;23;20183;-82
2022/10/14 09:22:13;;;;;;;7.53;4.88;;;;;;;14.79;83.66;95529.53;6130468;23;20155;-81
2022/10/14 09:24:39;;;;;;;6.03;5.03;;;;;;;15.02;82.42;95525.94;6127079;23;20159;-82
2022/10/14 09:27:16;;;;;;;10.35;4.50;;;;;;;15.00;81.49;95522.66;6178444;23;20187;-85
2022/10/14 09:29:49;;;;;;;5.88;4.40;;;;;;;15.22;81.96;95530.69;6128873;23;20581;-83
2022/10/14 09:32:29;;;;;;;6.50;4.45;;;;;;;15.24;80.99;95526.91;6129157;23;20171;-85
2022/10/14 09:34:54;;;;;;;5.50;4.55;;;;;;;15.04;81.33;95523.16;6155133;23;20605;-83
2022/10/14 09:37:33;;;;;;;8.23;3.90;;;;;;;15.48;81.17;95518.03;6129985;23;20163;-83
2022/10/14 09:40:08;;;;;;;8.98;3.70;;;;;;;15.53;80.26;95518.28;6155008;23;20682;-82
2022/10/14 09:42:48;;;;;;;7.55;4.30;;;;;;;15.72;79.75;95522.22;6154710;23;20206;-84
2022/10/14 09:45:16;;;;;;;4.88;4.28;;;;;;;15.92;79.10;95514.66;6154367;23;20159;-81
2022/10/14 09:47:55;;;;;;;5.88;4.22;;;;;;;15.86;78.98;95523.22;6153470;23;20152;-82
2022/10/14 09:50:54;;;;;;;4.95;3.60;;;;;;;15.97;77.99;95508.84;6154741;23;20188;-82
2022/10/14 09:53:33;;;;;;;6.22;3.95;;;;;;;15.85;78.21;95517.16;6069745;23;20247;-82
2022/10/14 09:56:03;;;;;;;5.40;3.45;;;;;;;15.85;79.39;95500.66;6068682;23;20705;-82
2022/10/14 09:58:44;;;;;;;6.75;4.03;;;;;;;16.02;78.73;95502.09;6045910;23;20184;-83
2022/10/14 10:01:21;;;;;;;7.20;4.13;;;;;;;16.06;78.43;95498.09;6096799;23;20701;-84
2022/10/14 10:03:48;;;;;;;10.18;4.38;;;;;;;16.05;78.46;95495.66;6049725;23;20191;-83
2022/10/14 10:06:17;;;;;;;5.43;3.78;;;;;;;16.10;78.09;95499.38;6071750;23;20176;-83
2022/10/14 10:08:57;;;;;;;5.25;3.20;;;;;;;16.07;76.74;95494.47;6071287;23;20196;-83
2022/10/14 10:11:36;;;;;;;4.88;2.90;;;;;;;15.99;76.11;95485.91;6069997;23;20532;-82
2022/10/14 10:14:20;;;;;;;4.28;2.60;;;;;;;15.92;77.84;95485.03;6092912;23;20167;-80
2022/10/14 10:16:46;;;;;;;3.33;3.00;;;;;;;15.91;77.71;95491.28;6105153;23;20153;-81
2022/10/14 10:19:33;;;;;;;3.88;2.67;;;;;;;15.88;78.26;95489.00;6122985;23;20188;-81
2022/10/14 10:22:16;;;;;;;6.07;2.97;;;;;;;15.90;78.03;95485.19;6122839;23;20137;-81
2022/10/14 10:24:43;;;;;;;5.03;2.95;;;;;;;15.63;77.97;95483.22;6117597;23;20148;-81
2022/10/14 10:27:27;;;;;;;3.35;2.53;;;;;;;15.88;78.37;95479.31;6113728;23;20556;-82
2022/10/14 10:29:55;;;;;;;4.22;2.80;;;;;;;15.85;78.41;95480.50;6139881;23;20171;-83
2022/10/14 10:32:37;;;;;;;5.97;2.85;;;;;;;15.47;80.50;95471.09;6152843;23;20251;-82
2022/10/14 10:35:18;;;;;;;3.50;2.92;;;;;;;15.42;82.15;95473.44;6151423;23;20470;-81
2022/10/14 10:37:52;;;;;;;3.88;2.85;;;;;;;15.28;83.03;95472.41;6153234;23;20210;-82
2022/10/14 10:40:35;;;;;;;5.82;3.10;;;;;;;15.50;82.66;95471.53;6145815;23;20282;-81
2022/10/14 10:43:20;;;;;;;3.88;3.47;;;;;;;15.56;83.25;95462.97;6126186;23;20593;-81
2022/10/14 10:45:57;;;;;;;4.20;2.95;;;;;;;15.34;82.83;95460.44;6127751;23;20160;-81
2022/10/14 10:48:46;;;;;;;3.47;3.10;;;;;;;15.24;83.98;95465.91;6129223;23;20191;-82
2022/10/14 10:51:52;;;;;;;7.55;3.47;;;;;;;14.98;86.92;95466.31;6128255;23;20250;-82
2022/10/14 10:54:25;;;;;;;3.20;2.65;;;;;;;15.14;87.55;95466.19;6067714;23;20503;-82
2022/10/14 10:56:56;;;;;;;4.85;3.30;;;;;;;15.17;89.19;95459.78;6042966;23;20164;-83
2022/10/14 10:59:30;;;;;;;4.78;3.22;;;;;;;15.02;90.47;95452.72;6067789;23;20184;-83
2022/10/14 11:02:11;;;;;;;5.10;3.60;;;;;;;15.34;90.13;95458.63;6043925;23;20152;-81
2022/10/14 11:05:02;;;;;;;7.47;3.85;;;;;;;15.05;91.14;95453.34;6088248;23;20176;-83
2022/10/14 11:13:35;;;;;;;4.57;3.80;;;;;;;15.38;89.21;95432.94;6065077;23;20157;-82
2022/10/14 11:16:26;;;;;;;4.25;3.38;;;;;;;15.36;88.98;95427.84;6039620;23;20180;-81
2022/10/14 11:19:06;;;;;;;7.13;3.50;;;;;;;15.67;88.89;95426.91;6041082;23;20232;-81
2022/10/14 11:21:44;;;;;;;4.75;3.88;;;;;;;15.74;88.96;95415.53;6041196;23;20582;-81
2022/10/14 11:24:35;;;;;;;7.97;4.00;;;;;;;15.67;88.84;95419.03;6088761;23;20212;-83
2022/10/14 11:27:22;;;;;;;6.70;3.28;;;;;;;16.00;86.96;95414.22;6065927;23;20173;-80
2022/10/14 11:30:05;;;;;;;8.45;4.05;;;;;;;16.12;86.07;95412.72;6116550;23;20191;-82
2022/10/14 11:32:52;;;;;;;6.45;3.28;;;;;;;16.29;84.60;95403.66;6124467;23;20246;-81
2022/10/14 11:35:32;;;;;;;5.18;3.35;;;;;;;16.17;84.79;95404.31;6125856;23;20220;-81
2022/10/14 11:38:17;;;;;;;5.72;3.80;;;;;;;16.63;83.67;95400.34;6100422;23;20186;-80
2022/10/14 11:40:57;;;;;;;4.82;3.22;;;;;;;16.35;83.24;95402.09;6099884;23;20226;-82
2022/10/14 11:43:28;;;;;;;6.03;3.55;;;;;;;16.45;84.23;95394.75;6125714;23;20475;-82
2022/10/14 11:46:08;;;;;;;5.35;3.80;;;;;;;16.58;82.50;95400.09;6093368;23;20155;-82